TAP870 LPPT-LIPE
Flight info
| Callsign | TAP870 |
|---|---|
| Flight time | 2h 12m |
| Altitude | 34000 |
| Route | ORVED DCT RODAP DCT RAKOD DCT UREDI DCT PONEN DCT SEROX N870 BCN DCT SALON DCT AGENA DCT BODEQ DCT LUMAS DCT UNANA DCT STP DCT RAPED DCT PIGOS DCT EKSID DCT NOSTA DCT EGHIN DCT KALMO Y239 NIGSO |
| Aircraft | A320/M-SDE3FGHIRWY/LB1 |
Departure
| Time | 2026-05-04 16:24 |
|---|---|
| Airport | Lisbon Humberto Delgado Airport (LPPT) |
Arrival
| Time | 2026-05-04 18:36 |
|---|---|
| Airport | Bologna Guglielmo Marconi Airport (LIPE) |
| Time | Latitude | Longitude | Altitude | Speed | Heading |
|---|---|---|---|---|---|
| 2026-05-04 15:46 | 38.76982 | -9.13076 | 336 ft | 0 kts | 78° |
| 2026-05-04 16:14 | 38.76982 | -9.13078 | 337 ft | 2 kts | 78° |
| 2026-05-04 16:15 | 38.76982 | -9.13165 | 336 ft | 4 kts | 161° |
| 2026-05-04 16:16 | 38.76975 | -9.13165 | 334 ft | 4 kts | 168° |
| 2026-05-04 16:16 | 38.76963 | -9.13161 | 337 ft | 0 kts | 168° |
| 2026-05-04 16:19 | 38.76858 | -9.13132 | 338 ft | 14 kts | 167° |
| 2026-05-04 16:19 | 38.76774 | -9.13198 | 340 ft | 8 kts | 260° |
| 2026-05-04 16:20 | 38.76663 | -9.13459 | 349 ft | 14 kts | 226° |
| 2026-05-04 16:20 | 38.76606 | -9.13782 | 346 ft | 20 kts | 258° |
| 2026-05-04 16:21 | 38.76505 | -9.14210 | 346 ft | 17 kts | 290° |
| 2026-05-04 16:22 | 38.76604 | -9.14410 | 336 ft | 8 kts | 15° |
| 2026-05-04 16:22 | 38.76741 | -9.14336 | 337 ft | 54 kts | 22° |
| 2026-05-04 16:23 | 38.79226 | -9.12989 | 954 ft | 161 kts | 17° |
| 2026-05-04 16:24 | 38.84064 | -9.09794 | 2341 ft | 244 kts | 27° |
| 2026-05-04 16:25 | 38.87030 | -9.07494 | 3919 ft | 256 kts | 26° |
| 2026-05-04 16:26 | 38.91570 | -9.00210 | 7082 ft | 281 kts | 60° |
| 2026-05-04 16:26 | 38.94149 | -8.93287 | 9339 ft | 295 kts | 60° |
| 2026-05-04 16:27 | 38.95957 | -8.88440 | 10483 ft | 316 kts | 61° |
| 2026-05-04 16:28 | 38.99062 | -8.80135 | 11665 ft | 359 kts | 62° |
| 2026-05-04 16:28 | 39.02337 | -8.71301 | 13578 ft | 374 kts | 61° |
| 2026-05-04 16:29 | 39.06911 | -8.58901 | 15836 ft | 392 kts | 62° |
| 2026-05-04 16:30 | 39.10480 | -8.49225 | 17448 ft | 405 kts | 62° |
| 2026-05-04 16:31 | 39.12895 | -8.42639 | 18487 ft | 414 kts | 62° |
| 2026-05-04 16:31 | 39.16631 | -8.32443 | 19888 ft | 425 kts | 62° |
| 2026-05-04 16:32 | 39.20454 | -8.21957 | 21321 ft | 436 kts | 62° |
| 2026-05-04 16:33 | 39.23043 | -8.14868 | 22238 ft | 444 kts | 62° |
| 2026-05-04 16:33 | 39.25685 | -8.07605 | 23132 ft | 450 kts | 62° |
| 2026-05-04 16:34 | 39.28321 | -8.00208 | 23908 ft | 458 kts | 64° |
| 2026-05-04 16:34 | 39.29534 | -7.96394 | 24262 ft | 461 kts | 66° |
| 2026-05-04 16:35 | 39.32806 | -7.84635 | 25279 ft | 470 kts | 68° |
| 2026-05-04 16:35 | 39.36173 | -7.72639 | 26241 ft | 477 kts | 67° |
| 2026-05-04 16:36 | 39.37336 | -7.68610 | 26562 ft | 480 kts | 67° |
| 2026-05-04 16:36 | 39.40203 | -7.60830 | 27166 ft | 481 kts | 57° |
| 2026-05-04 16:37 | 39.43446 | -7.53284 | 27763 ft | 486 kts | 58° |
| 2026-05-04 16:37 | 39.45080 | -7.49444 | 28056 ft | 488 kts | 58° |
| 2026-05-04 16:37 | 39.48369 | -7.41705 | 28597 ft | 493 kts | 58° |
| 2026-05-04 16:38 | 39.51692 | -7.33897 | 29111 ft | 497 kts | 57° |
| 2026-05-04 16:39 | 39.56695 | -7.22090 | 29833 ft | 504 kts | 58° |
| 2026-05-04 16:39 | 39.60083 | -7.14082 | 30239 ft | 509 kts | 57° |
| 2026-05-04 16:40 | 39.63474 | -7.05981 | 30609 ft | 513 kts | 59° |
| 2026-05-04 16:40 | 39.66539 | -6.97618 | 31137 ft | 514 kts | 63° |
| 2026-05-04 16:41 | 39.69286 | -6.89138 | 31687 ft | 512 kts | 64° |
| 2026-05-04 16:41 | 39.73469 | -6.76377 | 32484 ft | 511 kts | 63° |
| 2026-05-04 16:42 | 39.77765 | -6.63800 | 33261 ft | 509 kts | 63° |
| 2026-05-04 16:43 | 39.80621 | -6.55379 | 33792 ft | 509 kts | 63° |
| 2026-05-04 16:43 | 39.83442 | -6.46944 | 34244 ft | 508 kts | 63° |
| 2026-05-04 16:43 | 39.84850 | -6.42730 | 34466 ft | 508 kts | 64° |
| 2026-05-04 16:44 | 39.90013 | -6.25598 | 35272 ft | 508 kts | 69° |
| 2026-05-04 16:45 | 39.92360 | -6.16988 | 35651 ft | 508 kts | 68° |
| 2026-05-04 16:46 | 39.95999 | -6.04048 | 35954 ft | 506 kts | 68° |
| 2026-05-04 16:46 | 39.98455 | -5.95450 | 35954 ft | 506 kts | 68° |
| 2026-05-04 16:47 | 40.03290 | -5.78282 | 35950 ft | 506 kts | 68° |
| 2026-05-04 16:48 | 40.08103 | -5.61037 | 35957 ft | 505 kts | 69° |
| 2026-05-04 16:49 | 40.12879 | -5.43855 | 35987 ft | 505 kts | 69° |
| 2026-05-04 16:50 | 40.17622 | -5.26612 | 35973 ft | 504 kts | 69° |
| 2026-05-04 16:51 | 40.21150 | -5.13754 | 35965 ft | 503 kts | 70° |
| 2026-05-04 16:52 | 40.25834 | -4.96516 | 35960 ft | 502 kts | 70° |
| 2026-05-04 16:53 | 40.29340 | -4.83594 | 35945 ft | 502 kts | 70° |
| 2026-05-04 16:54 | 40.33962 | -4.66403 | 35947 ft | 502 kts | 70° |
| 2026-05-04 16:55 | 40.40851 | -4.40540 | 35973 ft | 502 kts | 70° |
| 2026-05-04 16:56 | 40.46570 | -4.18909 | 35963 ft | 502 kts | 70° |
| 2026-05-04 16:57 | 40.49966 | -4.05978 | 35977 ft | 502 kts | 70° |
| 2026-05-04 16:58 | 40.54492 | -3.88638 | 35993 ft | 501 kts | 71° |
| 2026-05-04 17:00 | 40.61210 | -3.62659 | 35935 ft | 501 kts | 71° |
| 2026-05-04 17:01 | 40.66767 | -3.40894 | 35933 ft | 501 kts | 71° |
| 2026-05-04 17:02 | 40.71182 | -3.23556 | 35948 ft | 501 kts | 71° |
| 2026-05-04 17:03 | 40.74473 | -3.10494 | 35952 ft | 500 kts | 72° |
| 2026-05-04 17:03 | 40.77751 | -2.97427 | 35934 ft | 500 kts | 72° |
| 2026-05-04 17:04 | 40.82086 | -2.80039 | 35943 ft | 500 kts | 72° |
| 2026-05-04 17:05 | 40.86408 | -2.62571 | 35932 ft | 500 kts | 72° |
| 2026-05-04 17:06 | 40.89619 | -2.49519 | 35975 ft | 500 kts | 72° |
| 2026-05-04 17:07 | 40.92463 | -2.37882 | 35968 ft | 499 kts | 72° |
| 2026-05-04 17:07 | 40.94947 | -2.27664 | 35951 ft | 499 kts | 73° |
| 2026-05-04 17:08 | 40.98112 | -2.14595 | 35953 ft | 500 kts | 73° |
| 2026-05-04 17:09 | 41.00221 | -2.05829 | 35954 ft | 500 kts | 73° |
| 2026-05-04 17:09 | 41.02329 | -1.97058 | 35956 ft | 500 kts | 73° |
| 2026-05-04 17:10 | 41.07565 | -1.75138 | 35947 ft | 501 kts | 73° |
| 2026-05-04 17:11 | 41.09648 | -1.66321 | 35956 ft | 501 kts | 73° |
| 2026-05-04 17:12 | 41.12769 | -1.53084 | 35973 ft | 501 kts | 73° |
| 2026-05-04 17:13 | 41.17932 | -1.31064 | 35977 ft | 501 kts | 73° |
| 2026-05-04 17:14 | 41.22029 | -1.13383 | 35956 ft | 501 kts | 74° |
| 2026-05-04 17:15 | 41.25068 | -1.00152 | 35947 ft | 501 kts | 74° |
| 2026-05-04 17:16 | 41.29132 | -0.82435 | 35955 ft | 501 kts | 74° |
| 2026-05-04 17:17 | 41.33137 | -0.64749 | 35935 ft | 501 kts | 75° |
| 2026-05-04 17:17 | 41.35336 | -0.51246 | 35961 ft | 495 kts | 92° |
| 2026-05-04 17:18 | 41.35323 | -0.46673 | 35963 ft | 493 kts | 94° |
| 2026-05-04 17:19 | 41.35208 | -0.28501 | 35944 ft | 493 kts | 94° |
| 2026-05-04 17:20 | 41.35034 | -0.10267 | 35946 ft | 492 kts | 94° |
| 2026-05-04 17:20 | 41.34883 | 0.03393 | 35920 ft | 492 kts | 95° |
| 2026-05-04 17:21 | 41.34673 | 0.21563 | 35901 ft | 493 kts | 95° |
| 2026-05-04 17:22 | 41.34555 | 0.30699 | 35901 ft | 494 kts | 95° |
| 2026-05-04 17:23 | 41.34299 | 0.48946 | 35892 ft | 495 kts | 95° |
| 2026-05-04 17:24 | 41.34076 | 0.62673 | 35903 ft | 495 kts | 95° |
| 2026-05-04 17:25 | 41.33766 | 0.80916 | 35884 ft | 495 kts | 95° |
| 2026-05-04 17:26 | 41.33419 | 0.99219 | 35929 ft | 495 kts | 95° |
| 2026-05-04 17:27 | 41.32961 | 1.22012 | 35930 ft | 494 kts | 96° |
| 2026-05-04 17:28 | 41.32550 | 1.40274 | 35946 ft | 494 kts | 96° |
| 2026-05-04 17:29 | 41.31894 | 1.67560 | 35936 ft | 492 kts | 96° |
| 2026-05-04 17:30 | 41.31547 | 1.81129 | 34894 ft | 488 kts | 97° |
| 2026-05-04 17:31 | 41.31295 | 1.90168 | 34946 ft | 489 kts | 97° |
| 2026-05-04 17:32 | 41.31132 | 2.12795 | 34948 ft | 498 kts | 83° |
| 2026-05-04 17:33 | 41.34289 | 2.30804 | 34945 ft | 500 kts | 80° |
| 2026-05-04 17:34 | 41.37432 | 2.48753 | 34933 ft | 499 kts | 80° |
| 2026-05-04 17:35 | 41.41342 | 2.71187 | 34906 ft | 500 kts | 80° |
| 2026-05-04 17:36 | 41.42889 | 2.80224 | 34914 ft | 501 kts | 81° |
| 2026-05-04 17:36 | 41.44440 | 2.89281 | 34920 ft | 501 kts | 80° |
| 2026-05-04 17:37 | 41.45997 | 2.98335 | 34918 ft | 502 kts | 80° |
| 2026-05-04 17:37 | 41.47535 | 3.07352 | 34891 ft | 502 kts | 81° |
| 2026-05-04 17:38 | 41.49067 | 3.16432 | 34911 ft | 502 kts | 81° |
| 2026-05-04 17:38 | 41.50596 | 3.25514 | 34907 ft | 502 kts | 81° |
| 2026-05-04 17:39 | 41.52875 | 3.39145 | 34941 ft | 502 kts | 81° |
| 2026-05-04 17:39 | 41.54367 | 3.48172 | 34936 ft | 502 kts | 81° |
| 2026-05-04 17:40 | 41.55865 | 3.57271 | 34938 ft | 501 kts | 81° |
| 2026-05-04 17:40 | 41.57362 | 3.66361 | 34937 ft | 501 kts | 81° |
| 2026-05-04 17:41 | 41.58850 | 3.75448 | 34940 ft | 501 kts | 81° |
| 2026-05-04 17:41 | 41.60314 | 3.84481 | 34918 ft | 501 kts | 81° |
| 2026-05-04 17:42 | 41.61781 | 3.93573 | 34926 ft | 501 kts | 81° |
| 2026-05-04 17:42 | 41.63245 | 4.02670 | 34931 ft | 500 kts | 81° |
| 2026-05-04 17:43 | 41.64704 | 4.11761 | 34930 ft | 500 kts | 81° |
| 2026-05-04 17:43 | 41.66138 | 4.20790 | 34907 ft | 500 kts | 81° |
| 2026-05-04 17:44 | 41.67569 | 4.29877 | 34912 ft | 500 kts | 81° |
| 2026-05-04 17:44 | 41.69012 | 4.38978 | 34919 ft | 500 kts | 81° |
| 2026-05-04 17:45 | 41.70434 | 4.48019 | 34943 ft | 500 kts | 82° |
| 2026-05-04 17:45 | 41.71847 | 4.57119 | 34946 ft | 499 kts | 81° |
| 2026-05-04 17:46 | 41.74207 | 4.65885 | 34926 ft | 504 kts | 62° |
| 2026-05-04 17:46 | 41.78407 | 4.73372 | 34936 ft | 504 kts | 43° |
| 2026-05-04 17:47 | 41.83416 | 4.79961 | 34937 ft | 505 kts | 44° |
| 2026-05-04 17:47 | 41.88379 | 4.86531 | 34939 ft | 505 kts | 44° |
| 2026-05-04 17:48 | 41.93377 | 4.93160 | 34956 ft | 505 kts | 44° |
| 2026-05-04 17:48 | 41.98369 | 4.99800 | 34927 ft | 505 kts | 44° |
| 2026-05-04 17:49 | 42.03327 | 5.06413 | 34942 ft | 506 kts | 44° |
| 2026-05-04 17:49 | 42.08323 | 5.13079 | 34955 ft | 506 kts | 44° |
| 2026-05-04 17:50 | 42.13316 | 5.19762 | 34967 ft | 506 kts | 44° |
| 2026-05-04 17:50 | 42.18295 | 5.26462 | 34974 ft | 506 kts | 44° |
| 2026-05-04 17:51 | 42.23283 | 5.33165 | 34978 ft | 506 kts | 44° |
| 2026-05-04 17:51 | 42.28235 | 5.39834 | 34973 ft | 507 kts | 44° |
| 2026-05-04 17:52 | 42.33220 | 5.46568 | 34983 ft | 507 kts | 44° |
| 2026-05-04 17:52 | 42.38196 | 5.53326 | 34989 ft | 507 kts | 44° |
| 2026-05-04 17:53 | 42.43172 | 5.60084 | 34994 ft | 507 kts | 44° |
| 2026-05-04 17:53 | 42.48117 | 5.66800 | 35020 ft | 507 kts | 44° |
| 2026-05-04 17:54 | 42.53089 | 5.73583 | 34994 ft | 507 kts | 44° |
| 2026-05-04 17:54 | 42.58043 | 5.80367 | 35017 ft | 506 kts | 44° |
| 2026-05-04 17:55 | 42.63000 | 5.87157 | 35016 ft | 506 kts | 44° |
| 2026-05-04 17:55 | 42.67914 | 5.93908 | 35024 ft | 506 kts | 44° |
| 2026-05-04 17:56 | 42.72857 | 6.00718 | 35024 ft | 506 kts | 44° |
| 2026-05-04 17:56 | 42.77790 | 6.07528 | 35028 ft | 505 kts | 44° |
| 2026-05-04 17:57 | 42.82715 | 6.14352 | 35000 ft | 506 kts | 44° |
| 2026-05-04 17:57 | 42.87812 | 6.20841 | 35035 ft | 504 kts | 38° |
| 2026-05-04 17:58 | 42.93179 | 6.26978 | 35017 ft | 503 kts | 38° |
| 2026-05-04 17:58 | 42.98537 | 6.33127 | 35027 ft | 503 kts | 38° |
| 2026-05-04 17:59 | 43.03852 | 6.39246 | 35026 ft | 503 kts | 38° |
| 2026-05-04 18:00 | 43.11869 | 6.48512 | 35026 ft | 503 kts | 38° |
| 2026-05-04 18:00 | 43.17207 | 6.54690 | 35056 ft | 502 kts | 38° |
| 2026-05-04 18:01 | 43.22355 | 6.61176 | 35041 ft | 504 kts | 48° |
| 2026-05-04 18:01 | 43.26528 | 6.68822 | 35053 ft | 505 kts | 53° |
| 2026-05-04 18:02 | 43.32706 | 6.80530 | 35057 ft | 505 kts | 53° |
| 2026-05-04 18:02 | 43.36816 | 6.88341 | 35036 ft | 505 kts | 53° |
| 2026-05-04 18:03 | 43.40922 | 6.96178 | 35042 ft | 505 kts | 53° |
| 2026-05-04 18:03 | 43.45000 | 7.03966 | 35065 ft | 505 kts | 53° |
| 2026-05-04 18:04 | 43.49102 | 7.11814 | 35070 ft | 505 kts | 53° |
| 2026-05-04 18:05 | 43.55233 | 7.23602 | 35070 ft | 505 kts | 53° |
| 2026-05-04 18:05 | 43.59283 | 7.31428 | 35062 ft | 504 kts | 53° |
| 2026-05-04 18:06 | 43.65393 | 7.43247 | 35082 ft | 503 kts | 53° |
| 2026-05-04 18:06 | 43.69452 | 7.51113 | 35071 ft | 503 kts | 53° |
| 2026-05-04 18:07 | 43.73503 | 7.58995 | 35064 ft | 503 kts | 53° |
| 2026-05-04 18:07 | 43.77513 | 7.66830 | 35064 ft | 503 kts | 53° |
| 2026-05-04 18:08 | 43.81545 | 7.74728 | 35078 ft | 502 kts | 53° |
| 2026-05-04 18:08 | 43.85570 | 7.82619 | 35095 ft | 502 kts | 53° |
| 2026-05-04 18:09 | 43.93586 | 7.98342 | 35096 ft | 501 kts | 53° |
| 2026-05-04 18:10 | 43.97602 | 8.06231 | 35119 ft | 500 kts | 53° |
| 2026-05-04 18:10 | 44.01590 | 8.14126 | 35129 ft | 499 kts | 53° |
| 2026-05-04 18:11 | 44.05262 | 8.22293 | 35122 ft | 499 kts | 65° |
| 2026-05-04 18:11 | 44.07469 | 8.31351 | 35116 ft | 498 kts | 75° |
| 2026-05-04 18:12 | 44.09312 | 8.40634 | 35085 ft | 498 kts | 75° |
| 2026-05-04 18:12 | 44.11148 | 8.49942 | 35102 ft | 499 kts | 75° |
| 2026-05-04 18:13 | 44.12982 | 8.59236 | 35100 ft | 497 kts | 75° |
| 2026-05-04 18:14 | 44.15696 | 8.73094 | 34780 ft | 496 kts | 75° |
| 2026-05-04 18:14 | 44.16598 | 8.77734 | 34540 ft | 497 kts | 75° |
| 2026-05-04 18:14 | 44.17501 | 8.82389 | 34297 ft | 498 kts | 75° |
| 2026-05-04 18:15 | 44.19306 | 8.91710 | 33792 ft | 499 kts | 75° |
| 2026-05-04 18:15 | 44.21096 | 9.00984 | 33251 ft | 498 kts | 75° |
| 2026-05-04 18:15 | 44.21992 | 9.05636 | 32887 ft | 496 kts | 75° |
| 2026-05-04 18:16 | 44.22881 | 9.10265 | 32185 ft | 494 kts | 75° |
| 2026-05-04 18:16 | 44.23762 | 9.14871 | 31565 ft | 490 kts | 75° |
| 2026-05-04 18:16 | 44.24634 | 9.19458 | 30932 ft | 487 kts | 76° |
| 2026-05-04 18:17 | 44.26356 | 9.28545 | 29606 ft | 482 kts | 76° |
| 2026-05-04 18:17 | 44.27208 | 9.33042 | 29005 ft | 477 kts | 76° |
| 2026-05-04 18:17 | 44.28869 | 9.41839 | 27807 ft | 468 kts | 76° |
| 2026-05-04 18:18 | 44.29690 | 9.46207 | 27223 ft | 463 kts | 76° |
| 2026-05-04 18:18 | 44.30505 | 9.50542 | 26645 ft | 459 kts | 76° |
| 2026-05-04 18:18 | 44.31305 | 9.54818 | 26164 ft | 452 kts | 76° |
| 2026-05-04 18:18 | 44.32058 | 9.59058 | 25599 ft | 447 kts | 80° |
| 2026-05-04 18:19 | 44.32721 | 9.67562 | 24631 ft | 435 kts | 86° |
| 2026-05-04 18:19 | 44.33005 | 9.71747 | 24157 ft | 430 kts | 86° |
| 2026-05-04 18:19 | 44.33283 | 9.75826 | 23671 ft | 426 kts | 86° |
| 2026-05-04 18:20 | 44.33561 | 9.79926 | 23135 ft | 421 kts | 86° |
| 2026-05-04 18:20 | 44.33832 | 9.83978 | 22660 ft | 416 kts | 86° |
| 2026-05-04 18:20 | 44.34098 | 9.87981 | 22191 ft | 412 kts | 86° |
| 2026-05-04 18:20 | 44.34360 | 9.91948 | 21717 ft | 408 kts | 86° |
| 2026-05-04 18:21 | 44.34618 | 9.95878 | 21231 ft | 405 kts | 86° |
| 2026-05-04 18:21 | 44.34875 | 9.99787 | 20765 ft | 403 kts | 86° |
| 2026-05-04 18:21 | 44.35127 | 10.03627 | 20286 ft | 401 kts | 86° |
| 2026-05-04 18:21 | 44.35378 | 10.07490 | 19792 ft | 399 kts | 86° |
| 2026-05-04 18:22 | 44.35627 | 10.11348 | 19297 ft | 397 kts | 86° |
| 2026-05-04 18:22 | 44.35872 | 10.15184 | 18828 ft | 395 kts | 86° |
| 2026-05-04 18:22 | 44.36113 | 10.19000 | 18332 ft | 394 kts | 86° |
| 2026-05-04 18:22 | 44.36352 | 10.22798 | 17816 ft | 391 kts | 86° |
| 2026-05-04 18:23 | 44.36588 | 10.26569 | 17338 ft | 387 kts | 85° |
| 2026-05-04 18:23 | 44.36820 | 10.30303 | 16897 ft | 384 kts | 85° |
| 2026-05-04 18:23 | 44.37052 | 10.34012 | 16429 ft | 382 kts | 85° |
| 2026-05-04 18:23 | 44.37276 | 10.37642 | 15972 ft | 379 kts | 85° |
| 2026-05-04 18:24 | 44.37501 | 10.41298 | 15511 ft | 376 kts | 85° |
| 2026-05-04 18:24 | 44.37722 | 10.44926 | 15083 ft | 373 kts | 85° |
| 2026-05-04 18:24 | 44.37942 | 10.48524 | 14678 ft | 370 kts | 85° |
| 2026-05-04 18:24 | 44.38160 | 10.52105 | 14222 ft | 367 kts | 85° |
| 2026-05-04 18:25 | 44.38374 | 10.55627 | 13652 ft | 360 kts | 85° |
| 2026-05-04 18:25 | 44.38584 | 10.59069 | 13157 ft | 351 kts | 86° |
| 2026-05-04 18:25 | 44.38784 | 10.62371 | 12728 ft | 341 kts | 86° |
| 2026-05-04 18:25 | 44.38979 | 10.65633 | 12301 ft | 336 kts | 87° |
| 2026-05-04 18:26 | 44.39171 | 10.68875 | 11847 ft | 333 kts | 88° |
| 2026-05-04 18:26 | 44.39361 | 10.72097 | 11419 ft | 331 kts | 87° |
| 2026-05-04 18:26 | 44.39555 | 10.75294 | 10961 ft | 329 kts | 87° |
| 2026-05-04 18:26 | 44.39754 | 10.78461 | 10512 ft | 323 kts | 87° |
| 2026-05-04 18:27 | 44.39951 | 10.81517 | 10324 ft | 306 kts | 87° |
| 2026-05-04 18:27 | 44.40154 | 10.84405 | 10075 ft | 293 kts | 84° |
| 2026-05-04 18:27 | 44.40740 | 10.87066 | 9833 ft | 291 kts | 66° |
| 2026-05-04 18:27 | 44.41880 | 10.89427 | 9438 ft | 296 kts | 48° |
| 2026-05-04 18:28 | 44.43513 | 10.91193 | 8888 ft | 299 kts | 29° |
| 2026-05-04 18:28 | 44.45395 | 10.92432 | 8365 ft | 297 kts | 26° |
| 2026-05-04 18:28 | 44.47246 | 10.93622 | 7859 ft | 288 kts | 25° |
| 2026-05-04 18:28 | 44.49039 | 10.94778 | 7372 ft | 279 kts | 25° |
| 2026-05-04 18:29 | 44.50845 | 10.95569 | 6958 ft | 268 kts | 6° |
| 2026-05-04 18:29 | 44.52683 | 10.95403 | 6586 ft | 265 kts | 344° |
| 2026-05-04 18:29 | 44.54319 | 10.94348 | 6221 ft | 263 kts | 323° |
| 2026-05-04 18:29 | 44.55640 | 10.92610 | 5824 ft | 260 kts | 314° |
| 2026-05-04 18:30 | 44.58908 | 10.91222 | 5074 ft | 255 kts | 12° |
| 2026-05-04 18:30 | 44.60544 | 10.92110 | 4698 ft | 252 kts | 28° |
| 2026-05-04 18:30 | 44.62069 | 10.93245 | 4334 ft | 243 kts | 27° |
| 2026-05-04 18:31 | 44.63507 | 10.94377 | 3989 ft | 232 kts | 39° |
| 2026-05-04 18:31 | 44.64412 | 10.96206 | 3660 ft | 231 kts | 72° |
| 2026-05-04 18:31 | 44.64410 | 10.98421 | 3347 ft | 230 kts | 109° |
| 2026-05-04 18:31 | 44.63687 | 11.00415 | 3023 ft | 229 kts | 118° |
| 2026-05-04 18:32 | 44.62964 | 11.02368 | 2708 ft | 228 kts | 116° |
| 2026-05-04 18:32 | 44.62268 | 11.04337 | 2612 ft | 223 kts | 116° |
| 2026-05-04 18:32 | 44.61604 | 11.06234 | 2611 ft | 211 kts | 116° |
| 2026-05-04 18:32 | 44.60977 | 11.08060 | 2610 ft | 206 kts | 115° |
| 2026-05-04 18:33 | 44.60349 | 11.09859 | 2615 ft | 205 kts | 116° |
| 2026-05-04 18:33 | 44.59715 | 11.11643 | 2600 ft | 205 kts | 116° |
| 2026-05-04 18:33 | 44.59080 | 11.13423 | 2454 ft | 200 kts | 115° |
| 2026-05-04 18:33 | 44.58462 | 11.15149 | 2193 ft | 197 kts | 116° |
| 2026-05-04 18:34 | 44.57859 | 11.16834 | 1925 ft | 188 kts | 115° |
| 2026-05-04 18:34 | 44.57291 | 11.18420 | 1671 ft | 173 kts | 116° |
| 2026-05-04 18:34 | 44.56782 | 11.19841 | 1423 ft | 159 kts | 117° |
| 2026-05-04 18:34 | 44.56302 | 11.21184 | 1170 ft | 150 kts | 117° |
| 2026-05-04 18:35 | 44.55838 | 11.22475 | 978 ft | 147 kts | 119° |
| 2026-05-04 18:35 | 44.55385 | 11.23739 | 755 ft | 144 kts | 118° |
| 2026-05-04 18:35 | 44.54942 | 11.24997 | 646 ft | 143 kts | 118° |
| 2026-05-04 18:35 | 44.54496 | 11.26239 | 378 ft | 143 kts | 120° |
| 2026-05-04 18:36 | 44.54044 | 11.27484 | 199 ft | 143 kts | 120° |
| 2026-05-04 18:36 | 44.53616 | 11.28664 | 128 ft | 120 kts | 116° |
| 2026-05-04 18:36 | 44.53321 | 11.29484 | 129 ft | 71 kts | 116° |
| 2026-05-04 18:36 | 44.53177 | 11.29886 | 127 ft | 29 kts | 117° |
| 2026-05-04 18:37 | 44.53091 | 11.29924 | 128 ft | 14 kts | 226° |
| 2026-05-04 18:37 | 44.53044 | 11.29823 | 129 ft | 9 kts | 236° |
| 2026-05-04 18:37 | 44.53032 | 11.29743 | 130 ft | 8 kts | 290° |
| 2026-05-04 18:37 | 44.53056 | 11.29671 | 130 ft | 8 kts | 295° |
| 2026-05-04 18:38 | 44.53079 | 11.29608 | 127 ft | 7 kts | 295° |
| 2026-05-04 18:38 | 44.53066 | 11.29565 | 129 ft | 4 kts | 208° |
| 2026-05-04 18:38 | 44.53044 | 11.29573 | 130 ft | 4 kts | 143° |
| 2026-05-04 18:38 | 44.53021 | 11.29630 | 128 ft | 13 kts | 117° |
| 2026-05-04 18:39 | 44.52983 | 11.29735 | 129 ft | 10 kts | 116° |
| 2026-05-04 18:39 | 44.53006 | 11.29793 | 130 ft | 6 kts | 356° |
| 2026-05-04 18:39 | 44.53031 | 11.29744 | 130 ft | 7 kts | 297° |
| 2026-05-04 18:39 | 44.53068 | 11.29642 | 129 ft | 6 kts | 297° |
| 2026-05-04 18:40 | 44.53069 | 11.29641 | 129 ft | 0 kts | 297° |
| 2026-05-04 18:40 | 44.53071 | 11.29582 | 130 ft | 10 kts | 227° |
| 2026-05-04 18:40 | 44.53067 | 11.29580 | 130 ft | 0 kts | 211° |
| 2026-05-04 18:40 | 44.53050 | 11.29571 | 130 ft | 3 kts | 159° |
| 2026-05-04 18:41 | 44.53029 | 11.29592 | 129 ft | 5 kts | 164° |
| 2026-05-04 18:41 | 44.53003 | 11.29582 | 130 ft | 3 kts | 207° |
| 2026-05-04 18:41 | 44.52990 | 11.29572 | 130 ft | 2 kts | 207° |
| 2026-05-04 18:41 | 44.52982 | 11.29567 | 129 ft | 0 kts | 207° |